Time;durP1;ratioP1;P1;durP2;ratioP2;P2;SDS_P1;SDS_P2;PMS_P1;PMS_P2;Temp;Humidity;BMP_temperature;BMP_pressure;BME280_temperature;BME280_humidity;BME280_pressure;Samples;Min_cycle;Max_cycle;Signal;HPM_P1;HPM_P2
2023/12/08 00:00:17;;;;;;;19.20;11.52;;;;;;;;;;5052313;28;20498;-72
2023/12/08 00:02:46;;;;;;;24.17;12.00;;;;;;;;;;5052376;28;20033;-73
2023/12/08 00:05:17;;;;;;;21.92;11.50;;;;;;;;;;5052418;28;20068;-73
2023/12/08 00:07:45;;;;;;;21.00;11.43;;;;;;;;;;5052050;28;20067;-73
2023/12/08 00:10:15;;;;;;;20.30;11.57;;;;;;;;;;5052099;28;20461;-73
2023/12/08 00:12:43;;;;;;;21.85;12.02;;;;;;;;;;5052196;28;20033;-72
2023/12/08 00:15:14;;;;;;;22.35;11.95;;;;;;;;;;5052230;28;20138;-72
2023/12/08 00:17:45;;;;;;;21.75;12.02;;;;;;;;;;5052438;28;20049;-72
2023/12/08 00:20:16;;;;;;;20.95;11.48;;;;;;;;;;5055792;28;20057;-72
2023/12/08 00:22:47;;;;;;;21.02;12.35;;;;;;;;;;5055976;28;20061;-73
2023/12/08 00:25:19;;;;;;;21.23;12.10;;;;;;;;;;5055910;28;20463;-73
2023/12/08 00:27:47;;;;;;;20.45;11.38;;;;;;;;;;5055579;28;20037;-72
2023/12/08 00:30:18;;;;;;;21.73;11.35;;;;;;;;;;5055427;28;20150;-72
2023/12/08 00:32:46;;;;;;;20.25;10.90;;;;;;;;;;5055680;28;20071;-72
2023/12/08 00:35:14;;;;;;;20.83;11.48;;;;;;;;;;5055306;28;20387;-72
2023/12/08 00:37:42;;;;;;;19.63;10.65;;;;;;;;;;5055691;28;20035;-72
2023/12/08 00:40:11;;;;;;;22.02;12.00;;;;;;;;;;5055680;28;20031;-72
2023/12/08 00:42:39;;;;;;;19.67;10.68;;;;;;;;;;5055623;28;20033;-72
2023/12/08 00:45:08;;;;;;;18.13;10.45;;;;;;;;;;5055656;28;20502;-72
2023/12/08 00:47:36;;;;;;;20.25;10.95;;;;;;;;;;5055070;28;20032;-72
2023/12/08 00:50:05;;;;;;;18.20;10.57;;;;;;;;;;5055479;28;20025;-73
2023/12/08 00:52:36;;;;;;;18.70;10.95;;;;;;;;;;5055317;28;20040;-72
2023/12/08 00:55:07;;;;;;;16.30;10.18;;;;;;;;;;5055674;28;20017;-72
2023/12/08 00:57:36;;;;;;;21.92;11.35;;;;;;;;;;5055331;28;20363;-72
2023/12/08 01:00:08;;;;;;;18.52;10.38;;;;;;;;;;5055384;28;20453;-73
2023/12/08 01:02:39;;;;;;;20.27;10.52;;;;;;;;;;5054985;28;20072;-72
2023/12/08 01:05:07;;;;;;;18.13;10.32;;;;;;;;;;5055120;28;20061;-73
2023/12/08 01:07:39;;;;;;;17.50;9.85;;;;;;;;;;5055029;28;20538;-72
2023/12/08 01:10:07;;;;;;;18.20;10.18;;;;;;;;;;5055146;28;20033;-72
2023/12/08 01:12:36;;;;;;;17.85;9.85;;;;;;;;;;5054781;28;20044;-73
2023/12/08 01:15:04;;;;;;;19.38;10.20;;;;;;;;;;5054901;28;20032;-72
2023/12/08 01:17:32;;;;;;;16.40;9.45;;;;;;;;;;5054645;28;20033;-72
2023/12/08 01:20:00;;;;;;;19.33;10.80;;;;;;;;;;5054802;28;20037;-73
2023/12/08 01:22:28;;;;;;;17.35;9.27;;;;;;;;;;5054808;28;20501;-72
2023/12/08 01:24:57;;;;;;;16.90;10.13;;;;;;;;;;5054709;28;20046;-72
2023/12/08 01:27:25;;;;;;;16.65;10.40;;;;;;;;;;5054855;28;20047;-72
2023/12/08 01:29:53;;;;;;;19.73;10.27;;;;;;;;;;5054253;28;20029;-72
2023/12/08 01:32:21;;;;;;;16.70;9.90;;;;;;;;;;5054238;28;20119;-72
2023/12/08 01:34:50;;;;;;;22.30;11.00;;;;;;;;;;5054818;28;20135;-72
2023/12/08 01:37:18;;;;;;;18.13;10.48;;;;;;;;;;5054494;28;20390;-72
2023/12/08 01:39:46;;;;;;;17.77;10.27;;;;;;;;;;5054527;28;20112;-72
2023/12/08 01:42:14;;;;;;;21.13;10.10;;;;;;;;;;5054189;28;20078;-73
2023/12/08 01:44:43;;;;;;;17.80;10.38;;;;;;;;;;5054454;28;20037;-72
2023/12/08 01:47:11;;;;;;;20.38;10.85;;;;;;;;;;5054411;28;20033;-72
2023/12/08 01:49:40;;;;;;;17.65;10.38;;;;;;;;;;5054105;28;20055;-72
2023/12/08 01:52:09;;;;;;;20.33;11.30;;;;;;;;;;5053940;28;20032;-72
2023/12/08 01:54:37;;;;;;;18.52;11.52;;;;;;;;;;5054215;28;20028;-72
2023/12/08 01:57:05;;;;;;;18.58;10.35;;;;;;;;;;5054290;28;20616;-72
2023/12/08 01:59:34;;;;;;;18.60;11.35;;;;;;;;;;5054253;28;20474;-73
2023/12/08 02:02:02;;;;;;;21.17;10.70;;;;;;;;;;5054057;28;20103;-73
2023/12/08 02:04:30;;;;;;;23.48;11.15;;;;;;;;;;5054005;28;20079;-73
2023/12/08 02:07:00;;;;;;;19.42;10.82;;;;;;;;;;5053734;28;20040;-73
2023/12/08 02:09:28;;;;;;;18.70;10.88;;;;;;;;;;5053925;28;20568;-72
2023/12/08 02:11:56;;;;;;;18.63;10.27;;;;;;;;;;5053850;28;20431;-73
2023/12/08 02:14:24;;;;;;;19.70;10.63;;;;;;;;;;5053970;28;20363;-73
2023/12/08 02:16:55;;;;;;;20.05;10.60;;;;;;;;;;5053773;28;20033;-73
2023/12/08 02:19:24;;;;;;;16.15;9.63;;;;;;;;;;5053510;28;20059;-72
2023/12/08 02:21:52;;;;;;;18.85;10.70;;;;;;;;;;5053299;28;20028;-72
2023/12/08 02:24:20;;;;;;;16.98;9.82;;;;;;;;;;5053604;28;20047;-73
2023/12/08 02:26:49;;;;;;;20.48;11.27;;;;;;;;;;5053645;28;20024;-73
2023/12/08 02:29:21;;;;;;;17.55;10.25;;;;;;;;;;5053579;28;20355;-73
2023/12/08 02:31:54;;;;;;;14.60;9.18;;;;;;;;;;5053320;28;20360;-73
2023/12/08 02:34:24;;;;;;;17.65;10.15;;;;;;;;;;5053264;28;20025;-72
2023/12/08 02:36:57;;;;;;;14.90;9.85;;;;;;;;;;5053021;28;20025;-72
2023/12/08 02:39:29;;;;;;;20.92;9.93;;;;;;;;;;5053466;28;20029;-72
2023/12/08 02:41:57;;;;;;;17.35;10.52;;;;;;;;;;5052696;28;20025;-72
2023/12/08 02:44:26;;;;;;;17.17;10.07;;;;;;;;;;5053252;28;20032;-73
2023/12/08 02:46:57;;;;;;;18.55;10.07;;;;;;;;;;5053153;28;20037;-72
2023/12/08 02:49:28;;;;;;;15.45;9.45;;;;;;;;;;5052693;28;20075;-73
2023/12/08 02:51:59;;;;;;;17.48;10.07;;;;;;;;;;5053059;28;20083;-72
2023/12/08 02:54:30;;;;;;;17.45;10.23;;;;;;;;;;5052797;28;20065;-72
2023/12/08 02:56:56;;;;;;;16.35;9.57;;;;;;;;;;5052582;28;20071;-72
2023/12/08 02:59:27;;;;;;;24.10;9.13;;;;;;;;;;5052962;28;20052;-72
2023/12/08 03:01:58;;;;;;;16.17;9.48;;;;;;;;;;5052521;28;20056;-72
2023/12/08 03:04:29;;;;;;;16.52;9.90;;;;;;;;;;5052928;28;20025;-71
2023/12/08 03:07:00;;;;;;;15.68;9.55;;;;;;;;;;5052566;28;20029;-72
2023/12/08 03:09:26;;;;;;;16.95;10.13;;;;;;;;;;5052475;28;20064;-72
2023/12/08 03:11:57;;;;;;;16.88;10.15;;;;;;;;;;5052699;28;20071;-72
2023/12/08 03:14:23;;;;;;;16.80;9.80;;;;;;;;;;5052731;28;20060;-72
2023/12/08 03:16:52;;;;;;;20.08;10.88;;;;;;;;;;5052819;28;20376;-72
2023/12/08 03:19:20;;;;;;;17.00;10.23;;;;;;;;;;5052322;28;20059;-72
2023/12/08 03:21:46;;;;;;;17.50;9.77;;;;;;;;;;5052703;28;20387;-72
2023/12/08 03:24:14;;;;;;;17.95;11.05;;;;;;;;;;5052832;28;20032;-72
2023/12/08 03:26:40;;;;;;;17.85;10.13;;;;;;;;;;5052628;28;20032;-72
2023/12/08 03:29:06;;;;;;;17.42;10.13;;;;;;;;;;5052442;28;20376;-72
2023/12/08 03:31:32;;;;;;;18.52;10.85;;;;;;;;;;5052642;28;20032;-72
2023/12/08 03:34:04;;;;;;;18.23;11.10;;;;;;;;;;5052447;28;20029;-72
2023/12/08 03:36:32;;;;;;;16.67;10.15;;;;;;;;;;5052520;28;20064;-72
2023/12/08 03:38:58;;;;;;;17.27;10.00;;;;;;;;;;5052593;28;20107;-72
2023/12/08 03:41:24;;;;;;;25.58;10.45;;;;;;;;;;5052674;28;20367;-72
2023/12/08 03:43:50;;;;;;;17.40;10.30;;;;;;;;;;5052478;28;20032;-72
2023/12/08 03:46:18;;;;;;;19.48;10.55;;;;;;;;;;5052535;28;20367;-72
2023/12/08 03:48:52;;;;;;;18.90;10.25;;;;;;;;;;5052606;28;20069;-72
2023/12/08 03:51:18;;;;;;;18.85;9.55;;;;;;;;;;5053040;28;20055;-72
2023/12/08 03:53:49;;;;;;;15.18;9.52;;;;;;;;;;5056636;28;20028;-72
2023/12/08 03:56:20;;;;;;;15.45;9.63;;;;;;;;;;5056658;28;20099;-72
2023/12/08 03:58:49;;;;;;;17.88;9.77;;;;;;;;;;5056057;28;20072;-72
2023/12/08 04:01:17;;;;;;;17.52;10.02;;;;;;;;;;5056667;28;20033;-72
2023/12/08 04:03:43;;;;;;;16.08;9.98;;;;;;;;;;5056461;28;20099;-72
2023/12/08 04:06:09;;;;;;;17.73;9.77;;;;;;;;;;5056458;28;20037;-72
2023/12/08 04:08:37;;;;;;;18.35;10.15;;;;;;;;;;5056280;28;20509;-72
2023/12/08 04:11:05;;;;;;;20.58;10.82;;;;;;;;;;5056400;28;20064;-72
2023/12/08 04:13:34;;;;;;;17.02;10.13;;;;;;;;;;5056400;28;20064;-72
2023/12/08 04:16:02;;;;;;;18.05;10.20;;;;;;;;;;5056668;28;20021;-72
2023/12/08 04:18:31;;;;;;;16.70;9.98;;;;;;;;;;5056450;28;20069;-72
2023/12/08 04:20:59;;;;;;;16.83;10.20;;;;;;;;;;5056351;28;20033;-72
2023/12/08 04:23:27;;;;;;;16.95;10.52;;;;;;;;;;5056170;28;20553;-72
2023/12/08 04:25:55;;;;;;;16.52;9.90;;;;;;;;;;5056617;28;20032;-72
2023/12/08 04:28:24;;;;;;;17.75;10.45;;;;;;;;;;5056135;28;20496;-72
2023/12/08 04:30:52;;;;;;;18.15;10.38;;;;;;;;;;5056764;28;20039;-72
2023/12/08 04:33:20;;;;;;;17.48;10.35;;;;;;;;;;5056674;28;20470;-72
2023/12/08 04:35:48;;;;;;;16.02;10.10;;;;;;;;;;5056542;28;20037;-72
2023/12/08 04:38:17;;;;;;;20.10;11.02;;;;;;;;;;5056694;28;20022;-72
2023/12/08 04:40:45;;;;;;;19.08;10.50;;;;;;;;;;5056239;28;20029;-72
2023/12/08 04:43:14;;;;;;;17.85;9.80;;;;;;;;;;5056606;28;20017;-72
2023/12/08 04:45:45;;;;;;;16.92;10.35;;;;;;;;;;5056404;28;20029;-71
2023/12/08 04:48:15;;;;;;;20.63;10.98;;;;;;;;;;5056003;28;20478;-72
2023/12/08 04:50:46;;;;;;;17.45;10.68;;;;;;;;;;5055974;28;20079;-73
2023/12/08 04:53:18;;;;;;;15.95;10.27;;;;;;;;;;5055952;28;20021;-73
2023/12/08 04:55:51;;;;;;;17.17;10.13;;;;;;;;;;5055732;28;20498;-71
2023/12/08 04:58:20;;;;;;;18.45;10.73;;;;;;;;;;5056020;28;20028;-71
2023/12/08 05:00:52;;;;;;;21.65;11.82;;;;;;;;;;5056034;28;20071;-71
2023/12/08 05:03:23;;;;;;;22.10;12.63;;;;;;;;;;5054999;28;20021;-70
2023/12/08 05:05:54;;;;;;;22.17;12.35;;;;;;;;;;5055671;28;20502;-70
2023/12/08 05:08:23;;;;;;;19.33;12.13;;;;;;;;;;5055583;28;20025;-69
2023/12/08 05:10:51;;;;;;;21.42;10.90;;;;;;;;;;5055817;28;20029;-70
2023/12/08 05:13:19;;;;;;;21.27;11.82;;;;;;;;;;5055698;28;20162;-71
2023/12/08 05:15:47;;;;;;;23.42;11.63;;;;;;;;;;5055483;28;20055;-70
2023/12/08 05:18:15;;;;;;;20.92;11.55;;;;;;;;;;5055365;28;20075;-70
2023/12/08 05:20:43;;;;;;;26.50;13.32;;;;;;;;;;5055418;28;20029;-69
2023/12/08 05:23:12;;;;;;;27.52;13.43;;;;;;;;;;5055402;28;20033;-69
2023/12/08 05:25:40;;;;;;;27.83;14.13;;;;;;;;;;5055503;28;20386;-70
2023/12/08 05:28:08;;;;;;;25.70;13.23;;;;;;;;;;5055421;28;20115;-69
2023/12/08 05:30:37;;;;;;;22.98;13.48;;;;;;;;;;5055364;28;20041;-73
2023/12/08 05:33:05;;;;;;;22.25;12.90;;;;;;;;;;5055168;28;20055;-72
2023/12/08 05:35:33;;;;;;;31.42;15.65;;;;;;;;;;5055096;28;20111;-73
2023/12/08 05:38:01;;;;;;;23.83;13.50;;;;;;;;;;5054881;28;20029;-73
2023/12/08 05:40:31;;;;;;;26.95;15.45;;;;;;;;;;5055137;28;20438;-74
2023/12/08 05:42:59;;;;;;;39.28;20.45;;;;;;;;;;5054760;28;20025;-75
2023/12/08 05:45:27;;;;;;;28.55;14.80;;;;;;;;;;5055063;28;20035;-75
2023/12/08 05:47:55;;;;;;;28.52;14.57;;;;;;;;;;5055077;28;20474;-74
2023/12/08 05:50:23;;;;;;;29.33;14.60;;;;;;;;;;5054970;28;20033;-73
2023/12/08 05:52:51;;;;;;;27.92;15.30;;;;;;;;;;5054564;28;20021;-73
2023/12/08 05:55:19;;;;;;;28.80;15.60;;;;;;;;;;5054675;28;20037;-73
2023/12/08 05:57:48;;;;;;;30.58;16.67;;;;;;;;;;5054930;28;20032;-73
2023/12/08 06:00:18;;;;;;;31.35;16.33;;;;;;;;;;5054758;28;20104;-73
2023/12/08 06:02:47;;;;;;;31.17;15.38;;;;;;;;;;5054776;28;20029;-72
2023/12/08 06:05:15;;;;;;;30.70;15.48;;;;;;;;;;5054423;28;20036;-72
2023/12/08 06:07:43;;;;;;;32.28;16.13;;;;;;;;;;5054751;28;20025;-73
2023/12/08 06:10:12;;;;;;;32.53;16.45;;;;;;;;;;5054485;28;20075;-72
2023/12/08 06:12:40;;;;;;;36.22;17.27;;;;;;;;;;5054545;28;20068;-72
2023/12/08 06:15:09;;;;;;;29.80;15.40;;;;;;;;;;5054472;28;20052;-72
2023/12/08 06:17:38;;;;;;;34.58;18.25;;;;;;;;;;5053859;28;20024;-72
2023/12/08 06:20:09;;;;;;;34.25;18.67;;;;;;;;;;5054305;28;20021;-72
2023/12/08 06:22:37;;;;;;;40.75;23.48;;;;;;;;;;5054328;28;20017;-72
2023/12/08 06:25:05;;;;;;;45.60;24.45;;;;;;;;;;5054020;28;20025;-71
2023/12/08 06:27:34;;;;;;;39.58;21.85;;;;;;;;;;5053799;28;20143;-72
2023/12/08 06:30:02;;;;;;;38.33;20.73;;;;;;;;;;5054219;28;20146;-72
2023/12/08 06:32:30;;;;;;;57.20;29.25;;;;;;;;;;5054113;28;20040;-72
2023/12/08 06:34:58;;;;;;;63.00;34.08;;;;;;;;;;5053965;28;20104;-72
2023/12/08 06:37:26;;;;;;;48.72;24.80;;;;;;;;;;5054056;28;20037;-73
2023/12/08 06:39:54;;;;;;;38.92;20.65;;;;;;;;;;5054068;28;20024;-73
2023/12/08 06:42:23;;;;;;;35.00;19.05;;;;;;;;;;5053906;28;20033;-72
2023/12/08 06:44:49;;;;;;;39.55;19.77;;;;;;;;;;5053483;28;20154;-73
2023/12/08 06:47:17;;;;;;;38.65;19.85;;;;;;;;;;5053580;28;20060;-72
2023/12/08 06:49:44;;;;;;;38.65;20.52;;;;;;;;;;5054040;28;20406;-73
2023/12/08 06:52:12;;;;;;;43.75;22.20;;;;;;;;;;5053777;28;20088;-73
2023/12/08 06:54:39;;;;;;;48.05;23.70;;;;;;;;;;5053687;28;20037;-73
2023/12/08 06:57:08;;;;;;;38.33;20.17;;;2.30;99.90;;;;;;5053510;28;20017;-72
2023/12/08 06:59:35;;;;;;;42.50;21.35;;;;;;;;;;5053584;28;20063;-73
2023/12/08 07:02:03;;;;;;;42.95;22.38;;;;;;;;;;5053236;28;20078;-73
2023/12/08 07:04:29;;;;;;;46.63;22.35;;;;;;;;;;5053170;28;20455;-73
2023/12/08 07:06:57;;;;;;;46.58;23.48;;;;;;;;;;5053155;28;20037;-73
2023/12/08 07:09:24;;;;;;;45.03;22.35;;;;;;;;;;5053463;28;20091;-73
2023/12/08 07:11:51;;;;;;;47.17;24.13;;;;;;;;;;5053458;28;20095;-73
2023/12/08 07:14:18;;;;;;;69.93;37.30;;;;;;;;;;5053531;28;20075;-72
2023/12/08 07:16:45;;;;;;;69.90;37.22;;;;;;;;;;5053359;28;20056;-73
2023/12/08 07:19:13;;;;;;;85.70;46.03;;;;;;;;;;5053059;28;20080;-73
2023/12/08 07:21:42;;;;;;;60.58;32.45;;;2.40;99.90;;;;;;5053332;28;20513;-73
2023/12/08 07:24:09;;;;;;;55.38;27.33;;;;;;;;;;5053211;28;20540;-72
2023/12/08 07:26:34;;;;;;;70.13;34.20;;;2.40;99.90;;;;;;5052689;28;20035;-73
2023/12/08 07:29:01;;;;;;;62.20;30.60;;;;;;;;;;5053016;28;20033;-73
2023/12/08 07:31:28;;;;;;;70.53;36.28;;;;;;;;;;5052993;28;20033;-72
2023/12/08 07:33:53;;;;;;;68.07;31.35;;;2.40;99.90;;;;;;5053206;28;20037;-73
2023/12/08 07:36:19;;;;;;;67.97;30.42;;;;;;;;;;5052768;28;20394;-73
2023/12/08 07:38:46;;;;;;;58.35;27.10;;;;;;;;;;5053260;28;20474;-73
2023/12/08 07:41:13;;;;;;;55.95;26.25;;;;;;;;;;5052953;28;20029;-73
2023/12/08 07:43:40;;;;;;;59.90;28.13;;;;;;;;;;5052692;28;20116;-72
2023/12/08 07:46:07;;;;;;;62.88;27.08;;;;;;;;;;5052854;28;20270;-72
2023/12/08 07:48:33;;;;;;;61.40;28.35;;;;;;;;;;5052847;28;20032;-72
2023/12/08 07:51:00;;;;;;;62.97;27.63;;;;;;;;;;5052899;28;20061;-72
2023/12/08 07:53:27;;;;;;;63.00;28.05;;;;;;;;;;5053004;28;20067;-73
2023/12/08 07:55:53;;;;;;;63.80;29.83;;;;;;;;;;5052334;28;20037;-73
2023/12/08 07:58:19;;;;;;;62.13;29.83;;;;;;;;;;5052606;28;20071;-73
2023/12/08 08:00:45;;;;;;;66.82;30.73;;;2.60;99.90;;;;;;5052997;28;20063;-72
2023/12/08 08:03:12;;;;;;;73.05;33.55;;;;;;;;;;5052767;28;20037;-73
2023/12/08 08:05:38;;;;;;;63.95;29.25;;;;;;;;;;5052937;28;20536;-72
2023/12/08 08:08:04;;;;;;;68.63;29.75;;;;;;;;;;5052949;28;20040;-72
2023/12/08 08:10:30;;;;;;;66.10;30.98;;;2.60;99.90;;;;;;5052876;28;20033;-72
2023/12/08 08:12:55;;;;;;;63.65;30.02;;;2.60;99.90;;;;;;5052852;28;20094;-72
2023/12/08 08:15:21;;;;;;;71.40;31.17;;;;;;;;;;5052940;28;20033;-73
2023/12/08 08:17:47;;;;;;;66.65;30.85;;;2.70;99.90;;;;;;5052353;28;20491;-73
2023/12/08 08:20:13;;;;;;;65.32;29.48;;;;;;;;;;5052961;28;20082;-73
2023/12/08 08:22:40;;;;;;;68.05;31.30;;;;;;;;;;5052751;28;20036;-72
2023/12/08 08:25:06;;;;;;;69.05;30.23;;;2.70;99.90;;;;;;5052620;28;20053;-73
2023/12/08 08:27:33;;;;;;;68.18;31.23;;;;;;;;;;5052619;28;20028;-73
2023/12/08 08:29:59;;;;;;;74.18;34.00;;;2.70;99.90;;;;;;5052665;28;20021;-73
2023/12/08 08:32:24;;;;;;;66.95;31.00;;;2.70;99.90;;;;;;5052618;28;20128;-72
2023/12/08 08:34:52;;;;;;;68.47;31.67;;;2.80;99.90;;;;;;5052654;28;20033;-73
2023/12/08 08:37:17;;;;;;;79.57;38.42;;;2.80;99.90;;;;;;5052572;28;20025;-73
2023/12/08 08:39:43;;;;;;;79.20;35.83;;;2.80;99.90;;;;;;5054890;28;20036;-73
2023/12/08 08:42:09;;;;;;;75.78;36.45;;;2.80;99.90;;;;;;5056203;28;20060;-72
2023/12/08 08:44:36;;;;;;;92.68;44.60;;;2.80;99.90;;;;;;5056137;28;20437;-73
2023/12/08 08:47:02;;;;;;;77.38;37.00;;;2.80;99.90;;;;;;5056102;28;20025;-73
2023/12/08 08:49:28;;;;;;;84.10;37.90;;;2.80;99.90;;;;;;5056043;28;20111;-72
2023/12/08 08:51:54;;;;;;;85.22;37.58;;;;;;;;;;5056099;28;20159;-73
2023/12/08 08:54:20;;;;;;;84.03;38.20;;;;;;;;;;5055865;28;20068;-72
2023/12/08 08:56:46;;;;;;;81.45;38.67;;;;;;;;;;5055891;28;20568;-73
2023/12/08 08:59:13;;;;;;;80.20;36.85;;;;;;;;;;5056005;28;20491;-72
2023/12/08 09:01:38;;;;;;;77.65;33.78;;;3.00;99.90;;;;;;5055343;28;20086;-73
2023/12/08 09:04:04;;;;;;;80.82;38.22;;;3.00;99.90;;;;;;5055803;28;20021;-73
2023/12/08 09:06:29;;;;;;;82.63;36.83;;;3.00;99.90;;;;;;5055640;28;20035;-73
2023/12/08 09:08:55;;;;;;;76.78;33.80;;;3.00;99.90;;;;;;5055750;28;20029;-74
2023/12/08 09:11:21;;;;;;;75.35;33.75;;;3.10;99.90;;;;;;5055782;28;20120;-73
2023/12/08 09:13:47;;;;;;;84.22;36.78;;;3.10;99.90;;;;;;5055717;28;20029;-73
2023/12/08 09:16:13;;;;;;;84.18;38.53;;;3.10;99.90;;;;;;5055211;28;20028;-73
2023/12/08 09:18:39;;;;;;;72.93;34.05;;;;;;;;;;5055029;28;20049;-73
2023/12/08 09:21:05;;;;;;;84.05;35.42;;;;;;;;;;5055520;28;20061;-73
2023/12/08 09:23:31;;;;;;;88.30;42.22;;;;;;;;;;5054995;28;20063;-73
2023/12/08 09:25:59;;;;;;;106.38;49.72;;;3.20;99.90;;;;;;5055447;28;20029;-74
2023/12/08 09:28:24;;;;;;;109.55;54.05;;;3.30;99.90;;;;;;5055349;28;20493;-73
2023/12/08 09:30:51;;;;;;;91.35;41.92;;;;;;;;;;5055455;28;20059;-74
2023/12/08 09:33:17;;;;;;;95.68;44.75;;;;;;;;;;5055496;28;20032;-73
2023/12/08 09:35:44;;;;;;;91.15;39.22;;;;;;;;;;5055336;28;20028;-73
2023/12/08 09:38:10;;;;;;;83.32;39.88;;;3.30;99.90;;;;;;5054891;28;20021;-73
2023/12/08 09:40:37;;;;;;;89.10;41.08;;;3.30;99.90;;;;;;5055178;28;20032;-73
2023/12/08 09:43:09;;;;;;;81.40;37.03;;;;;;;;;;5054944;28;20017;-73
2023/12/08 09:45:37;;;;;;;81.55;36.63;;;3.40;99.90;;;;;;5054984;28;20429;-73
2023/12/08 09:48:06;;;;;;;80.00;36.22;;;3.40;99.90;;;;;;5054815;28;20025;-73
2023/12/08 09:50:33;;;;;;;90.28;40.33;;;3.50;99.90;;;;;;5054489;28;20037;-73
2023/12/08 09:53:00;;;;;;;81.70;37.45;;;3.50;99.90;;;;;;5054843;28;20040;-73
2023/12/08 09:55:27;;;;;;;73.40;34.05;;;3.60;99.90;;;;;;5054861;28;20541;-73
2023/12/08 09:57:54;;;;;;;77.00;36.22;;;3.60;99.90;;;;;;5054617;28;20540;-73
2023/12/08 10:00:20;;;;;;;73.30;34.25;;;3.70;99.90;;;;;;5054941;28;20033;-73
2023/12/08 10:02:45;;;;;;;74.30;33.03;;;3.70;99.90;;;;;;5054850;28;20051;-73
2023/12/08 10:05:12;;;;;;;74.40;34.42;;;;;;;;;;5054608;28;20033;-73
2023/12/08 10:07:40;;;;;;;68.25;33.38;;;4.00;99.90;;;;;;5054539;28;20058;-73
2023/12/08 10:10:08;;;;;;;67.10;32.60;;;4.00;99.90;;;;;;5054596;28;20032;-73
2023/12/08 10:12:33;;;;;;;71.72;33.10;;;3.90;99.90;;;;;;5054366;28;20072;-73
2023/12/08 10:15:00;;;;;;;76.40;35.70;;;3.90;99.90;;;;;;5054470;28;20479;-73
2023/12/08 10:17:26;;;;;;;74.07;33.78;;;3.90;99.90;;;;;;5054031;28;20060;-72
2023/12/08 10:20:09;;;;;;;69.68;35.60;;;;;;;;;;5054089;28;20087;-73
2023/12/08 10:22:53;;;;;;;66.68;33.33;;;;;;;;;;5054313;28;20028;-73
2023/12/08 10:25:21;;;;;;;66.40;31.67;;;4.00;99.90;;;;;;5054363;28;20075;-74
2023/12/08 10:27:49;;;;;;;69.20;33.78;;;;;;;;;;5054398;28;20391;-74
2023/12/08 10:30:16;;;;;;;69.95;33.47;;;;;;;;;;5054096;28;20112;-74
2023/12/08 10:32:44;;;;;;;62.35;32.20;;;;;;;;;;5053985;28;20568;-74
2023/12/08 10:35:12;;;;;;;66.20;32.67;;;;;;;;;;5053960;28;20490;-74
2023/12/08 10:37:40;;;;;;;67.63;33.53;;;;;;;;;;5053836;28;20170;-74
2023/12/08 10:40:09;;;;;;;60.15;31.63;;;;;;;;;;5054024;28;20033;-74
2023/12/08 10:42:36;;;;;;;62.25;30.38;;;;;;;;;;5053776;28;20074;-74
2023/12/08 10:45:03;;;;;;;59.50;29.80;;;;;;;;;;5053972;28;20033;-74
2023/12/08 10:47:31;;;;;;;51.83;28.70;;;;;;;;;;5053963;28;20032;-74
2023/12/08 10:49:59;;;;;;;54.40;29.27;;;;;;;;;;5053645;28;20098;-74
2023/12/08 10:52:28;;;;;;;53.30;28.98;;;;;;;;;;5053777;28;20039;-74
2023/12/08 10:54:56;;;;;;;57.40;29.42;;;;;;;;;;5053728;28;20500;-74
2023/12/08 10:57:25;;;;;;;51.17;27.10;;;;;;;;;;5053335;28;20479;-74
2023/12/08 10:59:54;;;;;;;53.03;27.60;;;;;;;;;;5053043;28;20114;-74
2023/12/08 11:02:23;;;;;;;49.72;28.23;;;;;;;;;;5052669;28;20438;-74
2023/12/08 11:04:55;;;;;;;55.28;28.65;;;;;;;;;;5053228;28;20574;-73
2023/12/08 11:07:26;;;;;;;52.00;28.70;;;;;;;;;;5053595;28;20037;-74
2023/12/08 11:09:53;;;;;;;48.38;26.45;;;;;;;;;;5053439;28;20398;-74
2023/12/08 11:12:21;;;;;;;52.53;27.30;;;;;;;;;;5053451;28;20483;-74
2023/12/08 11:14:54;;;;;;;52.03;27.17;;;;;;;;;;5053121;28;20399;-74
2023/12/08 11:17:26;;;;;;;47.45;25.95;;;;;;;;;;5052918;28;20036;-73
2023/12/08 11:19:54;;;;;;;55.20;28.02;;;;;;;;;;5053282;28;20371;-73
2023/12/08 11:22:22;;;;;;;52.47;28.15;;;;;;;;;;5050159;28;20056;-74
2023/12/08 11:24:49;;;;;;;53.30;28.83;;;;;;;;;;5068679;28;20035;-73
2023/12/08 11:27:19;;;;;;;53.63;28.77;;;;;;;;;;5052581;28;20150;-73
2023/12/08 11:29:51;;;;;;;50.28;28.13;;;;;;;;;;5051160;28;20029;-74
2023/12/08 11:32:57;;;;;;;52.25;28.85;;;4.70;99.90;;;;;;5051130;28;20071;-73
2023/12/08 11:35:24;;;;;;;53.70;28.50;;;;;;;;;;5050934;28;20035;-73
2023/12/08 11:37:51;;;;;;;49.13;27.52;;;;;;;;;;5051146;28;20064;-73
2023/12/08 11:40:18;;;;;;;54.08;28.13;;;;;;;;;;5051385;28;20083;-74
2023/12/08 11:42:46;;;;;;;57.97;28.63;;;;;;;;;;5052135;28;20120;-74
2023/12/08 11:45:13;;;;;;;57.92;28.60;;;;;;;;;;5052975;28;20115;-74
2023/12/08 11:47:39;;;;;;;55.85;29.75;;;;;;;;;;5052540;28;20031;-74
2023/12/08 11:50:10;;;;;;;53.55;27.55;;;4.80;99.90;;;;;;5053003;28;20083;-74
2023/12/08 11:52:38;;;;;;;52.42;28.02;;;;;;;;;;5053000;28;20368;-74
2023/12/08 11:55:24;;;;;;;53.47;28.23;;;;;;;;;;5052965;28;20087;-74
2023/12/08 11:58:09;;;;;;;51.83;27.83;;;4.80;99.90;;;;;;5053004;28;20032;-74
2023/12/08 12:00:37;;;;;;;56.00;29.52;;;4.80;99.90;;;;;;5052889;28;20025;-74
2023/12/08 12:03:05;;;;;;;52.42;28.20;;;4.80;99.90;;;;;;5052816;28;20605;-74
2023/12/08 12:05:31;;;;;;;51.63;27.67;;;4.80;99.90;;;;;;5052755;28;20025;-73
2023/12/08 12:07:57;;;;;;;54.55;28.23;;;4.80;99.90;;;;;;5052935;28;20032;-74
2023/12/08 12:10:25;;;;;;;49.20;27.08;;;;;;;;;;5052883;28;20391;-73
2023/12/08 12:13:09;;;;;;;59.03;28.42;;;;;;;;;;5053640;28;20023;-74
2023/12/08 12:15:35;;;;;;;;;;;;;;;;;;5057139;28;20497;-74
2023/12/08 12:18:03;;;;;;;50.38;25.98;;;;;;;;;;5056064;28;20000;-74
2023/12/08 12:20:30;;;;;;;51.72;27.42;;;;;;;;;;5056553;28;20431;-74
2023/12/08 12:22:58;;;;;;;51.72;27.60;;;;;;;;;;5056570;28;20471;-73
2023/12/08 12:25:24;;;;;;;48.42;25.90;;;;;;;;;;5056622;28;20028;-74
2023/12/08 12:27:51;;;;;;;43.95;24.55;;;;;;;;;;5056541;28;20075;-74
2023/12/08 12:30:18;;;;;;;43.63;24.30;;;;;;;;;;5056482;28;20036;-74
2023/12/08 12:32:44;;;;;;;45.13;22.70;;;;;;;;;;5056412;28;20028;-74
2023/12/08 12:35:10;;;;;;;43.30;23.52;;;;;;;;;;5056287;28;20478;-73
2023/12/08 12:37:37;;;;;;;44.17;22.67;;;;;;;;;;5056269;28;20414;-74
2023/12/08 12:40:07;;;;;;;42.35;23.23;;;;;;;;;;5056237;28;20395;-74
2023/12/08 12:42:43;;;;;;;43.65;23.42;;;;;;;;;;5056252;28;20031;-73
2023/12/08 12:45:10;;;;;;;40.63;22.08;;;;;;;;;;5056078;28;20032;-74
2023/12/08 12:47:37;;;;;;;42.33;23.25;;;;;;;;;;5055540;28;20036;-73
2023/12/08 12:50:04;;;;;;;50.08;23.88;;;;;;;;;;5055532;28;20071;-74
2023/12/08 12:52:31;;;;;;;45.42;23.63;;;;;;;;;;5055979;28;20528;-74
2023/12/08 12:54:59;;;;;;;44.60;23.13;;;;;;;;;;5055779;28;20032;-74
2023/12/08 12:57:45;;;;;;;42.35;21.77;;;;;;;;;;5055895;28;20103;-73
2023/12/08 13:00:14;;;;;;;42.97;22.50;;;;;;;;;;5055638;28;20029;-73
2023/12/08 13:02:40;;;;;;;40.15;22.40;;;;;;;;;;5055353;28;20021;-74
2023/12/08 13:05:10;;;;;;;44.38;23.25;;;;;;;;;;5055330;28;20115;-73
2023/12/08 13:07:36;;;;;;;42.92;23.55;;;;;;;;;;5055775;28;20381;-72
2023/12/08 13:10:04;;;;;;;46.03;23.13;;;;;;;;;;5055795;28;20112;-73
2023/12/08 13:12:33;;;;;;;47.58;23.33;;;;;;;;;;5055791;28;20495;-73
2023/12/08 13:14:59;;;;;;;41.10;22.73;;;;;;;;;;5055751;28;20029;-73
2023/12/08 13:17:27;;;;;;;48.22;23.50;;;;;;;;;;5055469;28;20021;-74
2023/12/08 13:19:55;;;;;;;43.38;22.55;;;;;;;;;;5055094;28;20028;-73
2023/12/08 13:22:22;;;;;;;42.78;21.88;;;;;;;;;;5055631;28;20042;-74
2023/12/08 13:24:50;;;;;;;45.67;22.70;;;;;;;;;;5054536;28;20029;-73
2023/12/08 13:27:19;;;;;;;45.15;23.05;;;;;;;;;;5055241;28;20025;-73
2023/12/08 13:29:46;;;;;;;44.00;22.55;;;;;;;;;;5055015;28;20108;-73
2023/12/08 13:32:14;;;;;;;44.85;21.77;;;;;;;;;;5055224;28;20028;-73
2023/12/08 13:34:41;;;;;;;48.33;24.90;;;;;;;;;;5055212;28;20120;-73
2023/12/08 13:37:09;;;;;;;50.70;23.42;;;;;;;;;;5055183;28;20112;-73
2023/12/08 13:39:37;;;;;;;46.53;22.30;;;;;;;;;;5054646;28;20040;-73
2023/12/08 13:42:05;;;;;;;47.92;23.42;;;;;;;;;;5054636;28;20035;-72
2023/12/08 13:44:33;;;;;;;55.67;24.50;;;;;;;;;;5055002;28;20037;-73
2023/12/08 13:47:00;;;;;;;46.38;23.35;;;;;;;;;;5054446;28;20044;-73
2023/12/08 13:49:27;;;;;;;45.63;22.35;;;;;;;;;;5054753;28;20106;-73
2023/12/08 13:51:55;;;;;;;43.40;22.35;;;;;;;;;;5054536;28;20112;-73
2023/12/08 13:54:23;;;;;;;45.60;22.33;;;;;;;;;;5054488;28;20471;-74
2023/12/08 13:56:51;;;;;;;47.60;21.58;;;;;;;;;;5053449;28;20497;-75
2023/12/08 13:59:18;;;;;;;47.03;22.83;;;;;;;;;;5052406;28;20039;-74
2023/12/08 14:01:46;;;;;;;46.03;21.40;;;;;;;;;;5052682;28;20033;-74
2023/12/08 14:04:15;;;;;;;45.38;22.45;;;;;;;;;;5052515;28;20108;-74
2023/12/08 14:06:42;;;;;;;43.10;22.95;;;;;;;;;;5052546;28;20137;-74